Portada
METAR-TAF:

METAR-TAF

Aeroports :

Rodrigues, Maurici

latitud: 19-41S, longitud: 063-25E, altitud: 58 m

Observació

L'informe es va fer fa 1 hora i 5 minuts, a les 15:00 UTC
Vent 12 kt del Est
Temperatura 24°C
Humitat 74%
Pressió 1017 hPa
Visibilitat 10 km o més
Escasses núvols a una alçada de 1800 ft
Núvols disperses a una alçada de 5000 ft

METAR: FIMR 211500Z 10012KT 9999 FEW018 SCT050 24/19 Q1017

Hora: 20:05 (16:05 UTC)

Pronòstic

L'informe es va fer fa 4 hores i 40 minuts, a les 11:25 UTC
Pronòstic vàlid del 21 a les 12 UTC al 22 a les 06 UTC
Vent 18 kt del Est amb ràfegues de 32 kt
Visibilitat 10 km o més
Núvols disperses a una alçada de 1800 ft

TAF: FIMR 211125Z 2112/2206 09018G32KT 9999 SCT018

Observacions i pronòstics meteorològics de més de 4000 aeroports (METAR i TAF).

Les estacions disponibles són els punts grocs i vermells al mapa.

Posi el ratolí al punt desitjat per veure el nom de l'estació.

Feu clic per veure les observacions i els pronòstics meteorològics.

Per canviar el mapa: feu clic els botons verds amb una creu de color negre per apropar; al botó verd amb un guió per allunyar la imatge; o en les fletxes verdes per a mapes adjacents.


METAR-TAF: